Time;durP1;ratioP1;P1;durP2;ratioP2;P2;SDS_P1;SDS_P2;PMS_P1;PMS_P2;Temp;Humidity;BMP_temperature;BMP_pressure;BME280_temperature;BME280_humidity;BME280_pressure;Samples;Min_cycle;Max_cycle;Signal;HPM_P1;HPM_P2
2022/04/09 00:00:26;;;;;;;1.73;0.30;;;;;;;;;;5033284;28;20462;-89
2022/04/09 00:02:53;;;;;;;0.30;0.20;;;;;;;;;;5033092;28;20452;-87
2022/04/09 00:05:20;;;;;;;0.40;0.20;;;;;;;;;;5033820;28;20443;-86
2022/04/09 00:07:47;;;;;;;0.40;0.20;;;;;;;;;;5034500;28;20806;-89
2022/04/09 00:10:14;;;;;;;0.30;0.20;;;;;;;;;;5033664;28;20481;-87
2022/04/09 00:12:44;;;;;;;0.30;0.20;;;;;;;;;;5034573;28;20457;-89
2022/04/09 00:15:13;;;;;;;0.40;0.30;;;1.40;99.90;;;;;;5034071;28;20451;-90
2022/04/09 00:17:41;;;;;;;0.37;0.27;;;;;;;;;;5032939;28;20499;-89
2022/04/09 00:20:09;;;;;;;0.40;0.30;;;1.30;99.90;;;;;;5034110;28;20509;-85
2022/04/09 00:22:36;;;;;;;0.40;0.30;;;;;;;;;;5034648;28;20462;-87
2022/04/09 00:25:04;;;;;;;0.40;0.30;;;;;;;;;;5034144;28;20451;-87
2022/04/09 00:27:31;;;;;;;0.40;0.30;;;;;;;;;;5033633;28;20490;-88
2022/04/09 00:29:58;;;;;;;0.40;0.40;;;;;;;;;;5033975;28;20927;-88
2022/04/09 00:32:26;;;;;;;0.40;0.40;;;1.40;99.90;;;;;;5033225;28;20474;-88
2022/04/09 00:34:54;;;;;;;0.50;0.40;;;;;;;;;;5033473;28;20963;-87
2022/04/09 00:37:21;;;;;;;0.53;0.40;;;;;;;;;;5033404;28;20453;-86
2022/04/09 00:39:48;;;;;;;0.47;0.40;;;;;;;;;;5033351;28;20471;-89
2022/04/09 00:42:15;;;;;;;0.60;0.30;;;1.40;99.90;;;;;;5036128;28;20490;-88
2022/04/09 00:44:42;;;;;;;0.40;0.30;;;;;;;;;;5037617;28;20458;-89
2022/04/09 00:47:10;;;;;;;0.50;0.43;;;1.40;99.90;;;;;;5039137;28;20466;-88
2022/04/09 00:49:39;;;;;;;0.30;0.30;;;1.40;99.90;;;;;;5036082;28;20451;-86
2022/04/09 00:52:08;;;;;;;0.40;0.30;;;1.40;99.90;;;;;;5037867;28;20456;-87
2022/04/09 00:54:38;;;;;;;0.53;0.50;;;1.40;99.90;;;;;;5037434;28;20446;-87
2022/04/09 00:57:07;;;;;;;0.50;0.47;;;1.40;99.90;;;;;;5037489;28;20446;-87
2022/04/09 00:59:43;;;;;;;0.57;0.53;;;1.30;99.90;;;;;;5037185;28;20487;-85
2022/04/09 01:02:12;;;;;;;0.50;0.50;;;1.30;99.90;;;;;;5036261;28;20451;-86
2022/04/09 01:04:43;;;;;;;0.60;0.40;;;1.30;99.90;;;;;;5037078;28;20451;-86
2022/04/09 01:07:10;;;;;;;0.50;0.47;;;;;;;;;;5036821;28;20483;-89
2022/04/09 01:09:38;;;;;;;1.00;0.53;;;;;;;;;;5033291;28;20497;-87
2022/04/09 01:12:05;;;;;;;0.60;0.60;;;-0.30;99.90;;;;;;5034269;28;20471;-86
2022/04/09 01:14:34;;;;;;;0.60;0.50;;;;;;;;;;5002717;28;20455;-89
2022/04/09 01:17:02;;;;;;;0.70;0.67;;;;;;;;;;5036260;28;20482;-86
2022/04/09 01:19:29;;;;;;;0.80;0.80;;;;;;;;;;5037096;28;20443;-88
2022/04/09 01:22:00;;;;;;;0.93;0.67;;;1.40;99.90;;;;;;5036941;28;20451;-86
2022/04/09 01:24:27;;;;;;;2.00;1.30;;;;;;;;;;5036799;28;20447;-88
2022/04/09 01:26:54;;;;;;;1.20;1.00;;;;;;;;;;5036819;28;20455;-89
2022/04/09 01:29:21;;;;;;;1.30;0.90;;;;;;;;;;5036741;28;20497;-87
2022/04/09 01:31:48;;;;;;;1.10;1.00;;;;;;;;;;5035589;28;20458;-89
2022/04/09 01:34:15;;;;;;;1.13;1.03;;;;;;;;;;5036816;28;20946;-88
2022/04/09 01:36:42;;;;;;;1.43;1.10;;;;;;;;;;5041308;28;20447;-87
2022/04/09 01:39:10;;;;;;;1.10;0.93;;;1.40;99.90;;;;;;5061106;28;20530;-89
2022/04/09 01:41:38;;;;;;;1.53;1.23;;;;;;;;;;5047229;28;20463;-88
2022/04/09 01:44:05;;;;;;;1.00;0.90;;;;;;;;;;5036928;28;20451;-88
2022/04/09 01:46:32;;;;;;;3.07;1.57;;;;;;;;;;5036569;28;20447;-88
2022/04/09 01:48:59;;;;;;;1.37;1.27;;;;;;;;;;5036695;28;20487;-89
2022/04/09 01:51:26;;;;;;;1.20;1.10;;;;;;;;;;5033821;28;20452;-90
2022/04/09 01:53:53;;;;;;;1.30;1.13;;;;;;;;;;5035257;28;20459;-89
2022/04/09 01:56:22;;;;;;;2.33;1.67;;;1.50;99.90;;;;;;5036515;28;20444;-88
2022/04/09 01:58:49;;;;;;;1.47;1.37;;;;;;;;;;5036519;28;20439;-91
2022/04/09 02:01:17;;;;;;;1.27;1.17;;;1.50;99.90;;;;;;5035489;28;20445;-89
2022/04/09 02:03:44;;;;;;;1.60;1.40;;;;;;;;;;5036386;28;20451;-89
2022/04/09 02:06:12;;;;;;;2.80;2.30;;;;;;;;;;5036187;28;20443;-88
2022/04/09 02:08:39;;;;;;;2.47;1.67;;;;;;;;;;5035775;28;20495;-88
2022/04/09 02:11:06;;;;;;;2.70;1.57;;;;;;;;;;5035866;28;20820;-88
2022/04/09 02:13:34;;;;;;;2.50;1.97;;;1.50;99.90;;;;;;5035782;28;20454;-89
2022/04/09 02:16:01;;;;;;;2.63;1.90;;;;;;;;;;5034473;28;20459;-88
2022/04/09 02:18:28;;;;;;;2.37;1.40;;;;;;;;;;5035487;28;20799;-87
2022/04/09 02:20:56;;;;;;;4.20;2.10;;;;;;;;;;5035755;28;20448;-89
2022/04/09 02:23:23;;;;;;;2.83;2.20;;;;;;;;;;5035169;28;20940;-88
2022/04/09 02:25:50;;;;;;;2.13;1.80;;;;;;;;;;5032218;28;20463;-88
2022/04/09 02:28:17;;;;;;;4.10;1.90;;;;;;;;;;5035069;28;20990;-89
2022/04/09 02:30:45;;;;;;;3.27;1.97;;;1.50;99.90;;;;;;5030916;28;20444;-88
2022/04/09 02:33:12;;;;;;;2.50;2.30;;;;;;;;;;5031054;28;20948;-88
2022/04/09 02:35:39;;;;;;;3.17;2.03;;;;;;;;;;5035000;28;20459;-88
2022/04/09 02:38:09;;;;;;;2.73;2.10;;;;;;;;;;5032018;28;20475;-88
2022/04/09 02:40:36;;;;;;;2.37;2.00;;;;;;;;;;5034833;28;20487;-89
2022/04/09 02:43:03;;;;;;;2.80;1.20;;;;;;;;;;5035032;28;20455;-89
2022/04/09 02:45:31;;;;;;;1.27;1.07;;;;;;;;;;5035464;28;20864;-89
2022/04/09 02:47:59;;;;;;;2.33;1.90;;;1.50;99.90;;;;;;5034208;28;20451;-89
2022/04/09 02:50:26;;;;;;;1.63;1.53;;;;;;;;;;5035044;28;20444;-90
2022/04/09 02:52:54;;;;;;;1.60;1.50;;;;;;;;;;5033343;28;20455;-89
2022/04/09 02:55:21;;;;;;;2.23;1.50;;;;;;;;;;5035095;28;20790;-90
2022/04/09 02:57:50;;;;;;;1.73;1.60;;;;;;;;;;5035679;28;21054;-89
2022/04/09 03:00:17;;;;;;;1.47;1.00;;;1.60;99.90;;;;;;5035269;28;20466;-90
2022/04/09 03:02:44;;;;;;;1.97;1.17;;;;;;;;;;5033468;28;20454;-90
2022/04/09 03:05:14;;;;;;;2.13;1.93;;;1.60;99.90;;;;;;5034462;28;20450;-88
2022/04/09 03:07:41;;;;;;;2.23;1.53;;;;;;;;;;5001356;28;20790;-90
2022/04/09 03:10:09;;;;;;;0.93;0.70;;;1.60;99.90;;;;;;5034732;28;20502;-90
2022/04/09 03:12:36;;;;;;;1.60;1.37;;;;;;;;;;5031649;28;20447;-91
2022/04/09 03:15:04;;;;;;;1.87;1.60;;;;;;;;;;5034376;28;20462;-89
2022/04/09 03:17:32;;;;;;;4.20;2.57;;;;;;;;;;5033249;28;20447;-90
2022/04/09 03:19:59;;;;;;;0.90;0.90;;;;;;;;;;5034098;28;20451;-91
2022/04/09 03:22:27;;;;;;;2.83;1.90;;;1.70;99.90;;;;;;5034179;28;20458;-89
2022/04/09 03:24:57;;;;;;;4.67;3.00;;;1.70;99.90;;;;;;5034189;28;20947;-89
2022/04/09 03:27:24;;;;;;;1.57;1.47;;;;;;;;;;5030665;28;20459;-89
2022/04/09 03:29:52;;;;;;;2.33;1.63;;;;;;;;;;5034118;28;20521;-88
2022/04/09 03:32:19;;;;;;;1.97;1.73;;;;;;;;;;5033105;28;20496;-88
2022/04/09 03:34:46;;;;;;;4.70;2.20;;;;;;;;;;5033877;28;20451;-88
2022/04/09 03:37:13;;;;;;;3.17;2.60;;;;;;;;;;5030609;28;20471;-88
2022/04/09 03:39:43;;;;;;;2.20;2.00;;;;;;;;;;5033575;28;20487;-89
2022/04/09 03:42:10;;;;;;;3.47;3.10;;;;;;;;;;5034053;28;20555;-89
2022/04/09 03:44:37;;;;;;;2.30;1.33;;;;;;;;;;5029375;28;20868;-89
2022/04/09 03:47:05;;;;;;;2.37;2.17;;;1.90;99.90;;;;;;5029555;28;20939;-89
2022/04/09 03:49:33;;;;;;;3.77;2.77;;;1.70;99.90;;;;;;5033395;28;20499;-89
2022/04/09 03:52:00;;;;;;;4.67;3.70;;;;;;;;;;5033688;28;20451;-88
2022/04/09 03:54:27;;;;;;;4.73;3.70;;;;;;;;;;5033741;28;20451;-88
2022/04/09 03:56:56;;;;;;;3.07;2.53;;;1.80;99.90;;;;;;5034069;28;20503;-89
2022/04/09 03:59:23;;;;;;;4.73;3.40;;;;;;;;;;5028430;28;20475;-88
2022/04/09 04:01:50;;;;;;;7.33;4.07;;;;;;;;;;5032464;28;20451;-88
2022/04/09 04:04:17;;;;;;;6.70;4.77;;;;;;;;;;5030482;28;20466;-88
2022/04/09 04:06:44;;;;;;;7.30;5.43;;;;;;;;;;5033572;28;20443;-89
2022/04/09 04:09:12;;;;;;;6.83;5.20;;;;;;;;;;5033773;28;20514;-90
2022/04/09 04:11:39;;;;;;;3.67;2.33;;;;;;;;;;5033674;28;20477;-89
2022/04/09 04:14:08;;;;;;;12.03;6.50;;;1.80;99.90;;;;;;5033361;28;20455;-88
2022/04/09 04:16:35;;;;;;;10.60;7.03;;;;;;;;;;5028139;28;20447;-89
2022/04/09 04:19:02;;;;;;;7.97;5.57;;;;;;;;;;5033599;28;20447;-88
2022/04/09 04:21:29;;;;;;;9.50;6.07;;;;;;;;;;5031727;28;20978;-89
2022/04/09 04:23:57;;;;;;;8.00;5.37;;;;;;;;;;5033699;28;20439;-89
2022/04/09 04:26:24;;;;;;;17.83;8.27;;;;;;;;;;5033412;28;20959;-88
2022/04/09 04:28:51;;;;;;;13.90;6.93;;;;;;;;;;5033578;28;20487;-89
2022/04/09 04:31:20;;;;;;;12.40;8.40;;;1.80;99.90;;;;;;5029836;28;20526;-89
2022/04/09 04:33:47;;;;;;;8.37;5.33;;;;;;;;;;5033514;28;20450;-89
2022/04/09 04:36:14;;;;;;;14.70;10.13;;;;;;;;;;5033662;28;20467;-89
2022/04/09 04:38:41;;;;;;;12.80;7.10;;;;;;;;;;5033077;28;20459;-88
2022/04/09 04:41:08;;;;;;;14.67;7.57;;;;;;;;;;5033153;28;20475;-89
2022/04/09 04:43:35;;;;;;;12.97;7.17;;;;;;;;;;5033254;28;20814;-90
2022/04/09 04:46:03;;;;;;;13.90;8.50;;;;;;;;;;5028326;28;20947;-90
2022/04/09 04:48:32;;;;;;;16.30;8.50;;;1.70;99.90;;;;;;5032890;28;20881;-89
2022/04/09 04:50:59;;;;;;;7.93;4.67;;;;;;;;;;5033199;28;20435;-88
2022/04/09 04:53:26;;;;;;;10.23;7.47;;;;;;;;;;5030425;28;20533;-88
2022/04/09 04:55:53;;;;;;;12.30;8.40;;;;;;;;;;5033054;28;20443;-90
2022/04/09 04:58:20;;;;;;;8.60;5.80;;;;;;;;;;5033442;28;20455;-89
2022/04/09 05:00:48;;;;;;;17.90;9.50;;;;;;;;;;5031818;28;20793;-89
2022/04/09 05:03:16;;;;;;;13.53;6.33;;;;;;;;;;5031493;28;20884;-88
2022/04/09 05:05:44;;;;;;;14.13;8.50;;;1.70;99.90;;;;;;5030911;28;20444;-88
2022/04/09 05:08:11;;;;;;;11.40;4.40;;;;;;;;;;5047242;28;20958;-90
2022/04/09 05:10:39;;;;;;;11.03;6.90;;;;;;;;;;5053105;28;20494;-89
2022/04/09 05:13:06;;;;;;;6.23;4.90;;;;;;;;;;5053007;28;20458;-91
2022/04/09 05:15:33;;;;;;;10.30;6.47;;;;;;;;;;5052867;28;20955;-86
2022/04/09 05:18:01;;;;;;;8.13;5.10;;;1.80;99.90;;;;;;5052282;28;20446;-90
2022/04/09 05:20:29;;;;;;;9.87;7.17;;;;;;;;;;5053307;28;20462;-90
2022/04/09 05:22:57;;;;;;;10.83;6.97;;;;;;;;;;5052821;28;20964;-90
2022/04/09 05:25:26;;;;;;;9.07;5.70;;;;;;;;;;5053097;28;20433;-89
2022/04/09 05:27:53;;;;;;;13.27;7.90;;;;;;;;;;5055280;28;20922;-87
2022/04/09 05:30:20;;;;;;;9.43;6.13;;;;;;;;;;5056756;28;20478;-90
2022/04/09 05:32:47;;;;;;;10.40;7.10;;;;;;;;;;5055986;28;20533;-90
2022/04/09 05:35:16;;;;;;;6.50;4.93;;;;;;;;;;5056930;28;20529;-90
2022/04/09 05:37:45;;;;;;;10.17;6.70;;;;;;;;;;5057227;28;20442;-89
2022/04/09 05:40:14;;;;;;;9.80;6.90;;;2.20;99.90;;;;;;5053267;28;20478;-90
2022/04/09 05:42:41;;;;;;;7.20;4.67;;;;;;;;;;5052132;28;20461;-89
2022/04/09 05:45:09;;;;;;;13.60;6.90;;;2.50;99.90;;;;;;5052898;28;20458;-90
2022/04/09 05:47:40;;;;;;;11.13;7.47;;;;;;;;;;5056703;28;20438;-91
2022/04/09 05:50:07;;;;;;;7.40;6.23;;;;;;;;;;5050343;28;20485;-90
2022/04/09 05:52:35;;;;;;;9.47;6.23;;;;;;;;;;5057175;28;20442;-91
2022/04/09 05:55:03;;;;;;;12.77;7.43;;;;;;;;;;5057021;28;20450;-91
2022/04/09 05:57:32;;;;;;;8.10;5.20;;;2.80;99.90;;;;;;5055036;28;20485;-90
2022/04/09 05:59:59;;;;;;;6.17;4.97;;;;;;;;;;5061705;28;20449;-91
2022/04/09 06:02:26;;;;;;;9.30;5.77;;;;;;;;;;5063161;28;20439;-90
2022/04/09 06:04:53;;;;;;;10.23;6.10;;;;;;;;;;5061112;28;20451;-89
2022/04/09 06:07:22;;;;;;;6.20;5.00;;;;;;;;;;5056427;28;20969;-92
2022/04/09 06:09:50;;;;;;;7.10;6.00;;;;;;;;;;5052834;28;20514;-93
2022/04/09 06:12:17;;;;;;;7.00;5.37;;;;;;;;;;5057424;28;20489;-92
2022/04/09 06:14:46;;;;;;;11.67;6.23;;;;;;;;;;5057304;28;20434;-93
2022/04/09 06:17:13;;;;;;;11.77;6.60;;;;;;;;;;5053121;28;21124;-91
2022/04/09 06:19:40;;;;;;;5.13;2.90;;;;;;;;;;5056916;28;20454;-92
2022/04/09 06:22:07;;;;;;;8.17;4.90;;;;;;;;;;5058033;28;20451;-92
2022/04/09 06:24:34;;;;;;;9.20;6.10;;;;;;;;;;5056940;28;20462;-92
2022/04/09 06:27:01;;;;;;;5.40;4.10;;;;;;;;;;5057031;28;20443;-91
2022/04/09 06:29:29;;;;;;;7.23;6.03;;;;;;;;;;5058131;28;20998;-92
2022/04/09 06:31:57;;;;;;;7.93;5.07;;;3.30;99.90;;;;;;5051945;28;20450;-92
2022/04/09 06:34:24;;;;;;;7.40;5.03;;;;;;;;;;5061899;28;20461;-93
2022/04/09 06:36:51;;;;;;;9.20;5.10;;;;;;;;;;5057312;28;20442;-93
2022/04/09 06:39:19;;;;;;;6.73;5.30;;;;;;;;;;5056418;28;20486;-93
2022/04/09 06:41:48;;;;;;;8.40;5.50;;;;;;;;;;5054027;28;20442;-92
2022/04/09 06:44:15;;;;;;;6.60;4.57;;;;;;;;;;5053576;28;20458;-93
2022/04/09 06:46:43;;;;;;;7.80;5.10;;;;;;;;;;5052873;28;20446;-92
2022/04/09 06:49:12;;;;;;;5.60;5.00;;;4.50;99.90;;;;;;5057880;28;20462;-92
2022/04/09 06:51:44;;;;;;;5.20;3.97;;;;;;;;;;5056571;28;20455;-92
2022/04/09 06:54:11;;;;;;;10.23;5.50;;;;;;;;;;5057326;28;20509;-95
2022/04/09 06:56:38;;;;;;;8.03;5.50;;;;;;;;;;5058818;28;20443;-92
2022/04/09 06:59:06;;;;;;;4.47;4.07;;;;;;;;;;5051775;28;20479;-93
2022/04/09 07:01:33;;;;;;;6.40;5.07;;;;;;;;;;5055614;28;20447;-92
2022/04/09 07:04:00;;;;;;;6.47;4.73;;;;;;;;;;5055893;28;20443;-92
2022/04/09 07:06:30;;;;;;;10.33;5.53;;;3.00;99.90;;;;;;5053263;28;20456;-94
2022/04/09 07:08:57;;;;;;;6.10;4.30;;;;;;;;;;5051133;28;20451;-93
2022/04/09 07:11:24;;;;;;;9.50;5.03;;;;;;;;;;5050618;28;20486;-93
2022/04/09 07:13:52;;;;;;;8.17;5.50;;;;;;;;;;5053817;28;20439;-92
2022/04/09 07:16:19;;;;;;;6.43;4.37;;;;;;;;;;5057967;28;20814;-93
2022/04/09 07:18:46;;;;;;;2.70;2.07;;;;;;;;;;5057162;28;20431;-92
2022/04/09 07:21:13;;;;;;;7.83;4.17;;;;;;;;;;5051821;28;20479;-91
2022/04/09 07:23:43;;;;;;;3.90;3.50;;;;;;;;;;5056555;28;20454;-93
2022/04/09 07:26:10;;;;;;;6.53;5.50;;;;;;;;;;5055675;28;20455;-91
2022/04/09 07:28:37;;;;;;;11.60;5.20;;;;;;;;;;5053031;28;20438;-92
2022/04/09 07:31:04;;;;;;;5.87;4.50;;;;;;;;;;5051200;28;20458;-93
2022/04/09 07:33:31;;;;;;;9.33;5.93;;;;;;;;;;5055016;28;20929;-91
2022/04/09 07:35:58;;;;;;;7.50;4.20;;;;;;;;;;5054670;28;20447;-90
2022/04/09 07:38:26;;;;;;;4.30;3.17;;;;;;;;;;5050492;28;20483;-90
2022/04/09 07:40:54;;;;;;;2.27;1.73;;;4.40;99.90;;;;;;5050054;28;20498;-92
2022/04/09 07:43:21;;;;;;;5.63;4.10;;;;;;;;;;4974593;28;20844;-90
2022/04/09 07:45:48;;;;;;;8.27;5.40;;;;;;;;;;4970552;28;20486;-91
2022/04/09 07:48:16;;;;;;;10.97;5.90;;;;;;;;;;4971280;28;20458;-93
2022/04/09 07:50:43;;;;;;;4.20;3.80;;;;;;;;;;4973465;28;20438;-92
2022/04/09 07:53:11;;;;;;;7.70;4.30;;;;;;;;;;4974486;28;20501;-92
2022/04/09 07:55:38;;;;;;;6.40;4.63;;;;;;;;;;4974977;28;20517;-92
2022/04/09 07:58:07;;;;;;;4.27;3.47;;;5.60;99.90;;;;;;4972223;28;20450;-93
2022/04/09 08:00:35;;;;;;;3.97;2.93;;;5.60;99.90;;;;;;4979062;28;20482;-90
2022/04/09 08:03:02;;;;;;;5.53;3.80;;;;;;;;;;5054593;28;20466;-92
2022/04/09 08:05:29;;;;;;;3.23;1.97;;;;;;;;;;5055591;28;20474;-90
2022/04/09 08:07:57;;;;;;;5.47;4.97;;;;;;;;;;5057347;28;20498;-91
2022/04/09 08:10:24;;;;;;;6.60;4.73;;;;;;;;;;5058334;28;20477;-91
2022/04/09 08:12:53;;;;;;;10.00;4.03;;;;;;;;;;5054804;28;20862;-91
2022/04/09 08:15:22;;;;;;;5.77;4.50;;;5.50;99.90;;;;;;5055053;28;20439;-91
2022/04/09 08:17:49;;;;;;;2.77;2.13;;;;;;;;;;5050696;28;20446;-91
2022/04/09 08:20:20;;;;;;;6.10;3.80;;;5.20;99.90;;;;;;5054427;28;20491;-89
2022/04/09 08:22:47;;;;;;;3.10;2.67;;;;;;;;;;5055174;28;20447;-91
2022/04/09 08:25:14;;;;;;;5.70;3.47;;;;;;;;;;5049234;28;20460;-91
2022/04/09 08:27:43;;;;;;;5.57;3.60;;;;;;;;;;5050601;28;20439;-93
2022/04/09 08:30:10;;;;;;;6.33;4.27;;;;;;;;;;5051921;28;20439;-92
2022/04/09 08:32:39;;;;;;;7.90;4.50;;;5.30;99.90;;;;;;5050913;28;20435;-90
2022/04/09 08:35:07;;;;;;;2.30;2.00;;;;;;;;;;5047616;28;20443;-91
2022/04/09 08:37:35;;;;;;;5.30;3.30;;;;;;;;;;5051337;28;20457;-90
2022/04/09 08:40:02;;;;;;;2.93;1.70;;;;;;;;;;5051392;28;20483;-92
2022/04/09 08:42:30;;;;;;;7.07;3.50;;;;;;;;;;5051810;28;20474;-90
2022/04/09 08:44:57;;;;;;;8.30;4.87;;;;;;;;;;5051553;28;20498;-91
2022/04/09 08:47:27;;;;;;;4.87;3.27;;;;;;;;;;5054128;28;20454;-89
2022/04/09 08:49:57;;;;;;;3.90;3.03;;;5.00;99.90;;;;;;5052043;28;20454;-93
2022/04/09 08:52:25;;;;;;;2.97;2.60;;;;;;;;;;5051629;28;20636;-86
2022/04/09 08:54:52;;;;;;;3.70;2.80;;;;;;;;;;5053044;28;20450;-85
2022/04/09 08:57:20;;;;;;;5.13;4.13;;;;;;;;;;5053265;28;20451;-90
2022/04/09 08:59:47;;;;;;;7.10;4.10;;;;;;;;;;5054835;28;20481;-88
2022/04/09 09:02:14;;;;;;;4.43;2.97;;;;;;;;;;5051990;28;20442;-92
2022/04/09 09:04:44;;;;;;;5.13;3.60;;;5.00;99.90;;;;;;5061836;28;20457;-89
2022/04/09 09:07:21;;;;;;;4.73;3.20;;;5.10;99.90;;;;;;5064800;28;20446;-91
2022/04/09 09:09:48;;;;;;;7.20;4.43;;;;;;;;;;5068969;28;20457;-90
2022/04/09 09:12:27;;;;;;;5.17;2.50;;;;;;;;;;5069190;28;20447;-91
2022/04/09 09:14:59;;;;;;;9.53;3.87;;;5.20;99.90;;;;;;5060968;28;20477;-92
2022/04/09 09:17:29;;;;;;;6.90;3.10;;;;;;;;;;5053018;28;20454;-89
2022/04/09 09:19:56;;;;;;;3.97;3.10;;;;;;;;;;5057140;28;20450;-88
2022/04/09 09:22:36;;;;;;;5.60;3.07;;;5.60;99.90;;;;;;5057810;28;20447;-90
2022/04/09 09:25:05;;;;;;;7.80;2.83;;;5.40;99.90;;;;;;5058078;28;20496;-91
2022/04/09 09:27:32;;;;;;;4.30;1.60;;;;;;;;;;5058385;28;20477;-88
2022/04/09 09:29:59;;;;;;;6.20;3.10;;;;;;;;;;5061428;28;20453;-91
2022/04/09 09:32:28;;;;;;;5.23;3.13;;;6.30;99.90;;;;;;5059347;28;20443;-92
2022/04/09 09:34:56;;;;;;;8.33;2.30;;;6.80;99.90;;;;;;5054600;28;20442;-91
2022/04/09 09:37:25;;;;;;;5.47;2.60;;;7.10;99.90;;;;;;5068074;28;20443;-92
2022/04/09 09:39:53;;;;;;;2.00;1.70;;;;;;;;;;5058661;28;20482;-89
2022/04/09 09:42:20;;;;;;;8.47;3.00;;;;;;;;;;5058727;28;20476;-90
2022/04/09 09:44:47;;;;;;;8.07;3.43;;;;;;;;;;5060089;28;20957;-90
2022/04/09 09:47:16;;;;;;;4.80;2.73;;;;;;;;;;5062734;28;20450;-90
2022/04/09 09:49:53;;;;;;;3.30;1.43;;;7.00;99.90;;;;;;5055256;28;20517;-90
2022/04/09 09:52:27;;;;;;;8.30;2.53;;;;;;;;;;5011168;28;20450;-93
2022/04/09 09:54:58;;;;;;;2.97;2.43;;;6.80;99.90;;;;;;5058023;28;20462;-91
2022/04/09 09:57:26;;;;;;;4.83;2.57;;;;;;;;;;5054690;28;20466;-93
2022/04/09 09:59:55;;;;;;;4.37;2.90;;;7.80;99.90;;;;;;5058134;28;20893;-93
2022/04/09 10:02:26;;;;;;;3.93;2.27;;;;;;;;;;5059930;28;20486;-93
2022/04/09 10:04:53;;;;;;;1.70;1.20;;;;;;;;;;5060513;28;20451;-93
2022/04/09 10:07:22;;;;;;;3.27;2.03;;;;;;;;;;5059332;28;20445;-94
2022/04/09 10:09:53;;;;;;;4.43;1.90;;;;;;;;;;5063539;28;20454;-94
2022/04/09 10:12:23;;;;;;;19.03;2.90;;;;;;;;;;5049648;28;20545;-93
2022/04/09 10:14:54;;;;;;;4.43;2.07;;;7.70;99.90;;;;;;5065865;28;20510;-92
2022/04/09 10:17:22;;;;;;;5.50;2.63;;;7.90;99.90;;;;;;5066627;28;20457;-93
2022/04/09 10:19:57;;;;;;;2.20;0.93;;;7.10;99.90;;;;;;5071721;28;20443;-92
2022/04/09 10:22:26;;;;;;;3.07;1.30;;;6.60;99.90;;;;;;5068808;28;20497;-93
2022/04/09 10:24:57;;;;;;;8.73;2.30;;;7.20;99.90;;;;;;5062132;28;20458;-93
2022/04/09 10:27:34;;;;;;;4.07;2.73;;;7.80;99.90;;;;;;5067624;28;20427;-92
2022/04/09 10:30:02;;;;;;;4.17;0.87;;;;;;;;;;5056064;28;20504;-90
2022/04/09 10:32:43;;;;;;;1.93;1.43;;;;;;;;;;5065913;28;20438;-93
2022/04/09 10:38:00;;;;;;;4.80;1.80;;;;;;;;;;5141316;22;20423;-96
2022/04/09 10:40:27;;;;;;;3.60;1.90;;;;;;;;;;5098670;28;20465;-93
2022/04/09 10:42:54;;;;;;;3.37;1.47;;;;;;;;;;5096605;28;20453;-94
2022/04/09 10:45:21;;;;;;;2.50;1.00;;;;;;;;;;5098017;28;20913;-91
2022/04/09 10:48:10;;;;;;;7.57;1.77;;;8.80;99.90;;;;;;5094774;28;20449;-95
2022/04/09 10:50:55;;;;;;;4.13;1.13;;;8.80;99.90;;;;;;5098100;28;20508;-95
2022/04/09 10:53:40;;;;;;;5.13;1.93;;;8.20;99.90;;;;;;5107379;22;20471;-90
2022/04/09 10:56:15;;;;;;;2.27;1.67;;;7.80;99.90;;;;;;5114583;22;20485;-92
2022/04/09 10:59:34;;;;;;;5.13;1.80;;;7.60;99.90;;;;;;5088356;22;20502;-95
2022/04/09 11:02:04;;;;;;;4.87;1.43;;;;;;;;;;5010053;28;20445;-92
2022/04/09 11:04:41;;;;;;;4.57;1.60;;;7.80;99.90;;;;;;5011085;28;20476;-94
2022/04/09 11:07:10;;;;;;;3.47;2.20;;;8.50;99.90;;;;;;5065309;28;21062;-94
2022/04/09 11:09:44;;;;;;;4.67;2.03;;;;;;;;;;5095967;28;20441;-92
2022/04/09 11:12:11;;;;;;;5.30;1.93;;;;;;;;;;5092922;28;20502;-92
2022/04/09 11:14:47;;;;;;;7.00;2.20;;;;;;;;;;5096175;28;20448;-91
2022/04/09 11:17:28;;;;;;;7.90;2.30;;;8.60;99.90;;;;;;5101276;28;20425;-91
2022/04/09 11:19:56;;;;;;;7.77;2.40;;;9.00;99.90;;;;;;5092647;28;20441;-93
2022/04/09 11:22:31;;;;;;;4.20;1.80;;;8.70;99.90;;;;;;5094169;28;20432;-92
2022/04/09 11:24:59;;;;;;;8.73;2.40;;;9.10;99.90;;;;;;5103926;28;20453;-94
2022/04/09 11:27:27;;;;;;;5.03;2.27;;;9.30;99.90;;;;;;5094521;28;20861;-96
2022/04/09 11:29:55;;;;;;;4.10;1.37;;;;;;;;;;5096058;28;20505;-91
2022/04/09 11:32:24;;;;;;;1.50;1.03;;;8.50;99.90;;;;;;5095354;28;20483;-90
2022/04/09 11:34:56;;;;;;;5.93;2.03;;;8.40;99.90;;;;;;5091793;28;20536;-90
2022/04/09 11:37:26;;;;;;;1.77;1.17;;;8.30;99.90;;;;;;5091326;28;20473;-92
2022/04/09 11:39:54;;;;;;;2.53;1.73;;;;;;;;;;5091989;28;20877;-90
2022/04/09 11:42:22;;;;;;;4.90;2.10;;;8.60;99.90;;;;;;5091899;28;20460;-92
2022/04/09 11:44:49;;;;;;;4.23;1.63;;;;;;;;;;5091014;28;20449;-94
2022/04/09 11:47:18;;;;;;;7.67;1.90;;;9.30;99.90;;;;;;5085385;28;20478;-91
2022/04/09 11:49:47;;;;;;;4.40;1.70;;;9.20;99.30;;;;;;5077734;28;20464;-91
2022/04/09 11:52:25;;;;;;;2.90;1.30;;;8.70;99.00;;;;;;5076843;28;20450;-91
2022/04/09 11:54:53;;;;;;;5.20;1.57;;;;;;;;;;5074578;28;20445;-90
2022/04/09 11:57:23;;;;;;;1.17;1.07;;;8.90;98.30;;;;;;5077234;28;20453;-90
2022/04/09 11:59:52;;;;;;;8.20;1.87;;;8.70;99.90;;;;;;5076592;28;20445;-88
2022/04/09 12:02:24;;;;;;;2.60;1.80;;;9.40;99.90;;;;;;5074701;28;20510;-88
2022/04/09 12:04:51;;;;;;;7.00;2.40;;;;;;;;;;5077204;28;20446;-89
2022/04/09 12:07:19;;;;;;;3.27;1.67;;;;;;;;;;5077314;28;20497;-91
2022/04/09 12:09:46;;;;;;;2.37;1.43;;;;;;;;;;5077595;28;20811;-91
2022/04/09 12:12:13;;;;;;;7.20;2.50;;;;;;;;;;5078867;28;20449;-91
2022/04/09 12:14:53;;;;;;;7.10;2.47;;;10.10;97.00;;;;;;5077754;28;20980;-92
2022/04/09 12:17:22;;;;;;;1.63;1.33;;;;;;;;;;5076413;28;20468;-91
2022/04/09 12:19:50;;;;;;;3.57;2.00;;;;;;;;;;5077207;28;20441;-90
2022/04/09 12:22:19;;;;;;;3.90;2.37;;;9.60;95.80;;;;;;5077934;28;20449;-90
2022/04/09 12:24:55;;;;;;;3.20;1.60;;;9.40;94.90;;;;;;5069725;28;20441;-89
2022/04/09 12:27:41;;;;;;;6.70;3.20;;;8.60;97.60;;;;;;5076665;28;20492;-90
2022/04/09 12:30:11;;;;;;;3.87;2.10;;;7.90;98.20;;;;;;5081646;28;20456;-92
2022/04/09 12:32:41;;;;;;;1.40;1.27;;;;;;;;;;5082380;28;20456;-90
2022/04/09 12:35:10;;;;;;;0.80;0.60;;;9.10;97.90;;;;;;5080832;28;20453;-92
2022/04/09 12:37:45;;;;;;;5.87;1.93;;;9.10;97.80;;;;;;5078438;28;20465;-93
2022/04/09 12:40:13;;;;;;;3.40;1.97;;;9.80;98.90;;;;;;5075898;28;20460;-89
2022/04/09 12:42:40;;;;;;;2.47;1.37;;;;;;;;;;5077210;28;20457;-90
2022/04/09 12:45:15;;;;;;;2.07;0.73;;;10.10;94.70;;;;;;5076234;28;20503;-90
2022/04/09 12:47:43;;;;;;;2.00;1.33;;;;;;;;;;5077055;28;20511;-91
2022/04/09 12:50:21;;;;;;;1.53;1.20;;;9.60;96.20;;;;;;5076850;28;20502;-91
2022/04/09 12:52:49;;;;;;;4.00;1.60;;;;;;;;;;5077056;28;20441;-93
2022/04/09 12:55:17;;;;;;;4.03;1.60;;;9.60;97.70;;;;;;5076689;28;20503;-92
2022/04/09 12:57:44;;;;;;;2.47;0.67;;;;;;;;;;5076429;28;20477;-94
2022/04/09 13:00:15;;;;;;;2.97;1.13;;;9.30;96.20;;;;;;5076936;28;20430;-93
2022/04/09 13:02:45;;;;;;;2.80;1.40;;;9.50;96.40;;;;;;5075299;28;20434;-96
2022/04/09 13:05:13;;;;;;;1.07;0.97;;;;;;;;;;5077550;28;20519;-94
2022/04/09 13:07:40;;;;;;;4.33;1.90;;;;;;;;;;5077148;28;20489;-92
2022/04/09 13:10:09;;;;;;;3.10;1.70;;;9.60;95.30;;;;;;5078075;28;20454;-93
2022/04/09 13:12:36;;;;;;;1.53;0.50;;;;;;;;;;5016253;28;20458;-95
2022/04/09 13:15:05;;;;;;;1.47;1.07;;;;;;;;;;5015309;28;20461;-94
2022/04/09 13:17:35;;;;;;;6.17;1.70;;;;;;;;;;5015363;28;20559;-95
2022/04/09 13:20:03;;;;;;;2.83;1.60;;;;;;;;;;5011866;28;20976;-94
2022/04/09 13:22:30;;;;;;;3.40;1.70;;;;;;;;;;5015593;28;20483;-95
2022/04/09 13:24:57;;;;;;;6.33;1.90;;;;;;;;;;5015934;28;20459;-93
2022/04/09 13:27:25;;;;;;;2.17;0.60;;;;;;;;;;5015945;28;20488;-94
2022/04/09 13:29:52;;;;;;;2.97;0.90;;;;;;;;;;5016333;28;20448;-95
2022/04/09 13:32:20;;;;;;;2.80;1.20;;;;;;;;;;5013017;28;20467;-93
2022/04/09 13:34:49;;;;;;;4.47;1.33;;;;;;;;;;5015978;28;20453;-94
2022/04/09 13:37:18;;;;;;;3.47;1.50;;;;;;;;;;5044911;28;20481;-94
2022/04/09 13:39:45;;;;;;;8.23;1.33;;;;;;;;;;5074493;28;20949;-94
2022/04/09 13:42:12;;;;;;;1.13;0.73;;;;;;;;;;5076585;28;20942;-94
2022/04/09 13:44:40;;;;;;;3.00;1.47;;;;;;;;;;5076941;28;20454;-94
2022/04/09 13:47:08;;;;;;;2.53;0.90;;;;;;;;;;5075972;28;20481;-93
2022/04/09 13:49:36;;;;;;;6.27;1.70;;;;;;;;;;5076916;28;20426;-94
2022/04/09 13:52:07;;;;;;;2.63;1.33;;;9.00;95.40;;;;;;5077125;28;20537;-95
2022/04/09 13:54:35;;;;;;;4.30;1.60;;;;;;;;;;5078232;28;20446;-95
2022/04/09 13:57:02;;;;;;;5.97;2.03;;;;;;;;;;5078324;28;20446;-94
2022/04/09 13:59:29;;;;;;;4.30;1.70;;;;;;;;;;5077758;28;20921;-94
2022/04/09 14:01:57;;;;;;;4.43;1.67;;;;;;;;;;5076850;28;20454;-95
2022/04/09 14:04:25;;;;;;;6.73;2.23;;;;;;;;;;5077440;28;20464;-95
2022/04/09 14:06:52;;;;;;;4.53;1.33;;;;;;;;;;5077278;28;20514;-95
2022/04/09 14:09:21;;;;;;;5.40;1.50;;;;;;;;;;5109342;22;20478;-94
2022/04/09 14:11:50;;;;;;;4.93;1.73;;;;;;;;;;5070633;28;20438;-91
2022/04/09 14:14:17;;;;;;;2.90;1.20;;;;;;;;;;5071823;28;20446;-92
2022/04/09 14:16:44;;;;;;;2.60;1.20;;;;;;;;;;5054771;28;20454;-93
2022/04/09 14:19:12;;;;;;;3.10;1.70;;;;;;;;;;5055896;28;20459;-94